createdAt,value
2023-11-22T00:00:42.128Z,8.19
2023-11-22T00:03:27.188Z,8.09
2023-11-22T00:06:13.036Z,8.12
2023-11-22T00:08:58.326Z,8.05
2023-11-22T00:11:43.330Z,8.03
2023-11-22T00:14:28.817Z,8.03
2023-11-22T00:17:14.389Z,8.05
2023-11-22T00:20:01.676Z,7.99
2023-11-22T00:22:46.792Z,7.99
2023-11-22T00:25:31.829Z,7.88
2023-11-22T00:28:16.957Z,7.86
2023-11-22T00:31:01.933Z,7.85
2023-11-22T00:33:47.581Z,7.82
2023-11-22T00:36:32.697Z,7.74
2023-11-22T00:39:18.104Z,7.70
2023-11-22T00:42:04.775Z,7.67
2023-11-22T00:44:50.871Z,7.45
2023-11-22T00:47:36.743Z,7.49
2023-11-22T00:50:21.838Z,7.48
2023-11-22T00:53:07.038Z,7.48
2023-11-22T00:55:52.108Z,7.47
2023-11-22T00:58:37.115Z,7.38
2023-11-22T01:01:22.388Z,7.31
2023-11-22T01:04:08.296Z,7.25
2023-11-22T01:06:53.416Z,7.21
2023-11-22T01:09:38.400Z,7.12
2023-11-22T01:12:23.380Z,7.10
2023-11-22T01:15:09.585Z,7.14
2023-11-22T01:17:54.615Z,6.93
2023-11-22T01:20:40.059Z,6.92
2023-11-22T01:23:25.497Z,6.93
2023-11-22T01:26:10.831Z,6.90
2023-11-22T01:28:55.931Z,6.82
2023-11-22T01:31:43.106Z,6.75
2023-11-22T01:34:28.272Z,6.68
2023-11-22T01:37:13.410Z,6.66
2023-11-22T01:39:59.278Z,6.62
2023-11-22T01:42:44.443Z,6.55
2023-11-22T01:45:29.605Z,6.46
2023-11-22T01:48:15.375Z,6.42
2023-11-22T01:51:00.491Z,6.37
2023-11-22T01:53:46.353Z,6.35
2023-11-22T01:56:32.739Z,6.35
2023-11-22T01:59:18.977Z,6.39
2023-11-22T02:02:04.970Z,6.42
2023-11-22T02:04:50.383Z,6.31
2023-11-22T02:07:35.395Z,6.39
2023-11-22T02:10:22.092Z,6.39
2023-11-22T02:13:08.805Z,6.39
2023-11-22T02:15:57.061Z,6.34
2023-11-22T02:18:44.300Z,6.23
2023-11-22T02:21:29.196Z,6.33
2023-11-22T02:24:14.309Z,6.29
2023-11-22T02:26:59.748Z,6.26
2023-11-22T02:29:44.790Z,6.18
2023-11-22T02:32:30.730Z,6.13
2023-11-22T02:35:17.289Z,6.07
2023-11-22T02:38:02.416Z,6.10
2023-11-22T02:40:47.585Z,6.13
2023-11-22T02:43:32.846Z,6.14
2023-11-22T02:46:18.258Z,6.13
2023-11-22T02:49:03.417Z,6.27
2023-11-22T02:51:48.730Z,6.32
2023-11-22T02:54:33.841Z,6.35
2023-11-22T02:57:19.286Z,6.34
2023-11-22T03:00:09.132Z,6.29
2023-11-22T03:02:55.967Z,6.28
2023-11-22T03:05:41.308Z,6.18
2023-11-22T03:08:26.846Z,6.26
2023-11-22T03:11:12.235Z,6.14
2023-11-22T03:13:57.554Z,6.23
2023-11-22T03:16:43.808Z,6.21
2023-11-22T03:19:29.590Z,6.14
2023-11-22T03:22:14.948Z,6.17
2023-11-22T03:24:59.993Z,6.26
2023-11-22T03:27:45.396Z,6.25
2023-11-22T03:30:30.505Z,6.19
2023-11-22T03:33:16.024Z,6.19
2023-11-22T03:36:01.059Z,6.06
2023-11-22T03:38:46.039Z,5.96
2023-11-22T03:41:31.002Z,5.84
2023-11-22T03:44:16.027Z,5.83
2023-11-22T03:47:01.184Z,5.87
2023-11-22T03:49:46.715Z,5.81
2023-11-22T03:52:32.205Z,5.86
2023-11-22T03:55:17.413Z,5.91
2023-11-22T03:58:02.487Z,5.97
2023-11-22T04:00:48.170Z,5.99
2023-11-22T04:03:33.314Z,5.96
2023-11-22T04:06:20.154Z,5.93
2023-11-22T04:09:05.544Z,5.97
2023-11-22T04:11:50.518Z,5.97
2023-11-22T04:14:35.967Z,5.86
2023-11-22T04:17:21.565Z,5.88
2023-11-22T04:20:10.873Z,5.90
2023-11-22T04:22:56.172Z,5.89
2023-11-22T04:25:42.850Z,5.83
2023-11-22T04:28:29.015Z,5.87
2023-11-22T04:31:14.358Z,5.79
2023-11-22T04:34:01.389Z,5.70
2023-11-22T04:36:47.818Z,5.60
2023-11-22T04:39:33.254Z,5.59
2023-11-22T04:42:20.830Z,5.52
2023-11-22T04:45:07.450Z,5.58
2023-11-22T04:47:53.245Z,5.59
2023-11-22T04:50:38.280Z,5.61
2023-11-22T04:53:23.321Z,5.64
2023-11-22T04:56:08.357Z,5.62
2023-11-22T04:58:53.716Z,5.60
2023-11-22T05:01:39.351Z,5.57
2023-11-22T05:04:24.533Z,5.59
2023-11-22T05:07:10.487Z,5.55
2023-11-22T05:09:55.672Z,5.43
2023-11-22T05:12:41.188Z,5.38
2023-11-22T05:15:27.920Z,5.46
2023-11-22T05:18:13.113Z,5.45
2023-11-22T05:20:58.164Z,5.42
2023-11-22T05:23:45.700Z,5.36
2023-11-22T05:26:31.843Z,5.36
2023-11-22T05:29:16.870Z,5.27
2023-11-22T05:32:03.616Z,5.17
2023-11-22T05:34:49.100Z,5.20
2023-11-22T05:37:34.287Z,5.06
2023-11-22T05:40:19.328Z,4.98
2023-11-22T05:43:04.565Z,5.10
2023-11-22T05:45:50.846Z,5.02
2023-11-22T05:48:36.682Z,4.87
2023-11-22T05:51:22.149Z,4.94
2023-11-22T05:54:08.341Z,4.93
2023-11-22T05:56:53.520Z,4.92
2023-11-22T05:59:38.579Z,4.90
2023-11-22T06:02:23.913Z,4.88
2023-11-22T06:05:10.551Z,4.83
2023-11-22T06:07:55.617Z,4.82
2023-11-22T06:10:42.520Z,4.80
2023-11-22T06:13:28.664Z,4.83
2023-11-22T06:16:14.575Z,4.91
2023-11-22T06:18:59.592Z,4.84
2023-11-22T06:21:44.410Z,4.73
2023-11-22T06:24:29.721Z,4.70
2023-11-22T06:27:16.307Z,4.71
2023-11-22T06:30:01.429Z,4.72
2023-11-22T06:32:46.473Z,4.71
2023-11-22T06:35:31.777Z,4.74
2023-11-22T06:38:17.705Z,4.74
2023-11-22T06:41:02.532Z,4.70
2023-11-22T06:43:47.482Z,4.68
2023-11-22T06:46:32.534Z,4.63
2023-11-22T06:49:17.667Z,4.63
2023-11-22T06:52:02.674Z,4.68
2023-11-22T06:54:47.685Z,4.64
2023-11-22T06:57:33.076Z,4.51
2023-11-22T07:00:18.501Z,4.58
2023-11-22T07:03:03.736Z,4.58
2023-11-22T07:05:48.924Z,4.52
2023-11-22T07:08:35.773Z,4.50
2023-11-22T07:11:24.492Z,4.49
2023-11-22T07:14:09.661Z,4.43
2023-11-22T07:16:55.339Z,4.28
2023-11-22T07:19:44.119Z,4.22
2023-11-22T07:22:31.558Z,4.21
2023-11-22T07:25:19.876Z,4.30
2023-11-22T07:28:05.092Z,4.32
2023-11-22T07:30:50.423Z,4.33
2023-11-22T07:33:36.495Z,4.31
2023-11-22T07:36:21.780Z,4.39
2023-11-22T07:39:06.841Z,4.30
2023-11-22T07:41:53.948Z,4.16
2023-11-22T07:44:39.359Z,4.28
2023-11-22T07:47:25.500Z,4.29
2023-11-22T07:50:12.602Z,4.28
2023-11-22T07:52:57.965Z,4.19
2023-11-22T07:55:43.084Z,4.23
2023-11-22T07:58:28.385Z,4.22
2023-11-22T08:01:14.913Z,4.42
2023-11-22T08:04:00.451Z,4.40
2023-11-22T08:06:46.674Z,4.46
2023-11-22T08:09:33.812Z,4.51
2023-11-22T08:12:20.155Z,4.64
2023-11-22T08:15:05.673Z,4.71
2023-11-22T08:17:51.020Z,4.92
2023-11-22T08:20:36.253Z,4.92
2023-11-22T08:23:21.446Z,4.78
2023-11-22T08:26:07.850Z,4.86
2023-11-22T08:28:53.105Z,4.84
2023-11-22T08:31:38.416Z,4.81
2023-11-22T08:34:23.460Z,4.94
2023-11-22T08:37:08.574Z,4.95
2023-11-22T08:39:54.968Z,5.08
2023-11-22T08:42:42.004Z,5.05
2023-11-22T08:45:30.118Z,5.03
2023-11-22T08:48:16.525Z,5.06
2023-11-22T08:51:02.471Z,4.98
2023-11-22T08:53:47.810Z,4.85
2023-11-22T08:56:33.336Z,4.96
2023-11-22T08:59:19.181Z,4.95
2023-11-22T09:02:08.929Z,4.99
2023-11-22T09:04:54.418Z,4.99
2023-11-22T09:07:40.483Z,4.98
2023-11-22T09:10:25.887Z,5.06
2023-11-22T09:13:11.843Z,5.09
2023-11-22T09:15:57.187Z,5.05
2023-11-22T09:18:42.324Z,5.12
2023-11-22T09:21:27.755Z,5.12
2023-11-22T09:24:13.580Z,5.09
2023-11-22T09:26:58.792Z,5.20
2023-11-22T09:29:43.945Z,5.26
2023-11-22T09:32:29.116Z,5.26
2023-11-22T09:35:16.263Z,5.50
2023-11-22T09:38:10.615Z,5.65
2023-11-22T09:40:57.799Z,5.81
2023-11-22T09:43:45.163Z,5.99
2023-11-22T09:46:31.556Z,6.10
2023-11-22T09:49:23.352Z,6.19
2023-11-22T09:52:13.152Z,6.32
2023-11-22T09:54:58.816Z,6.52
2023-11-22T09:57:44.679Z,6.54
2023-11-22T10:00:31.375Z,6.59
2023-11-22T10:03:18.289Z,6.64
2023-11-22T10:06:05.559Z,6.67
2023-11-22T10:08:50.804Z,6.73
2023-11-22T10:11:39.746Z,6.80
2023-11-22T10:14:28.292Z,6.82
2023-11-22T10:17:13.312Z,6.87
2023-11-22T10:19:58.269Z,6.91
2023-11-22T10:22:49.075Z,6.90
2023-11-22T10:25:34.264Z,6.98
2023-11-22T10:28:26.506Z,7.07
2023-11-22T10:31:12.201Z,7.15
2023-11-22T10:33:58.654Z,7.10
2023-11-22T10:36:44.437Z,7.16
2023-11-22T10:39:29.945Z,7.29
2023-11-22T10:42:15.104Z,7.34
2023-11-22T10:45:04.463Z,7.38
2023-11-22T10:47:50.948Z,7.42
2023-11-22T10:50:35.935Z,7.49
2023-11-22T10:53:27.020Z,7.41
2023-11-22T10:56:17.031Z,7.34
2023-11-22T10:59:06.061Z,7.38
2023-11-22T11:01:53.777Z,7.33
2023-11-22T11:04:50.656Z,7.34
2023-11-22T11:07:39.751Z,7.46
2023-11-22T11:10:25.807Z,7.50
2023-11-22T11:13:11.876Z,7.72
2023-11-22T11:15:58.742Z,7.79
2023-11-22T11:18:44.230Z,7.80
2023-11-22T11:21:29.933Z,7.83
2023-11-22T11:24:16.019Z,7.98
2023-11-22T11:27:04.519Z,8.01
2023-11-22T11:29:49.916Z,8.02
2023-11-22T11:32:36.236Z,7.98
2023-11-22T11:35:39.337Z,8.11
2023-11-22T11:38:33.643Z,8.09
2023-11-22T11:41:18.893Z,8.13
2023-11-22T11:44:05.574Z,8.22
2023-11-22T11:46:53.133Z,8.46
2023-11-22T11:49:40.181Z,8.46
2023-11-22T11:52:28.383Z,8.53
2023-11-22T11:55:13.860Z,8.55
2023-11-22T11:58:05.661Z,8.66
2023-11-22T12:00:55.854Z,8.78
2023-11-22T12:03:40.778Z,8.88
2023-11-22T12:06:26.069Z,8.95
2023-11-22T12:09:11.109Z,9.04
2023-11-22T12:11:56.648Z,9.14
2023-11-22T12:14:42.160Z,9.20
2023-11-22T12:17:28.696Z,9.32
2023-11-22T12:20:20.016Z,9.23
2023-11-22T12:23:07.905Z,9.33
2023-11-22T12:26:00.054Z,9.28
2023-11-22T12:28:57.818Z,9.27
2023-11-22T12:31:56.040Z,9.26
2023-11-22T12:34:41.179Z,9.27
2023-11-22T12:37:28.418Z,9.20
2023-11-22T12:40:14.083Z,9.17
2023-11-22T12:43:00.104Z,9.12
2023-11-22T12:45:46.652Z,9.08
2023-11-22T12:48:33.657Z,9.14
2023-11-22T12:51:23.517Z,9.08
2023-11-22T12:54:09.051Z,9.10
2023-11-22T12:56:59.304Z,9.01
2023-11-22T12:59:45.465Z,9.07
2023-11-22T13:02:31.564Z,9.04
2023-11-22T13:05:17.638Z,9.09
2023-11-22T13:08:04.668Z,9.17
2023-11-22T13:11:00.406Z,9.16
2023-11-22T13:13:47.714Z,9.17
2023-11-22T13:16:33.599Z,9.30
2023-11-22T13:19:18.552Z,9.33
2023-11-22T13:22:03.461Z,9.22
2023-11-22T13:24:48.783Z,9.34
2023-11-22T13:27:33.746Z,9.40
2023-11-22T13:30:23.671Z,9.40
2023-11-22T13:33:08.883Z,9.36
2023-11-22T13:35:54.008Z,9.31
2023-11-22T13:38:40.652Z,9.36
2023-11-22T13:41:27.044Z,9.30
2023-11-22T13:44:12.009Z,9.33
2023-11-22T13:46:57.256Z,9.34
2023-11-22T13:49:43.670Z,9.33
2023-11-22T13:52:29.338Z,9.20
2023-11-22T13:55:14.546Z,9.21
2023-11-22T13:58:01.075Z,9.22
2023-11-22T14:00:48.948Z,9.31
2023-11-22T14:03:34.417Z,9.30
2023-11-22T14:06:19.981Z,9.27
2023-11-22T14:09:05.039Z,9.25
2023-11-22T14:11:50.390Z,9.25
2023-11-22T14:14:35.547Z,9.25
2023-11-22T14:17:22.164Z,9.23
2023-11-22T14:20:10.415Z,9.26
2023-11-22T14:22:55.769Z,9.25
2023-11-22T14:25:42.587Z,9.15
2023-11-22T14:28:27.668Z,9.20
2023-11-22T14:31:15.070Z,9.13
2023-11-22T14:34:03.260Z,9.08
2023-11-22T14:36:48.339Z,9.17
2023-11-22T14:39:34.868Z,9.21
2023-11-22T14:42:19.921Z,9.14
2023-11-22T14:45:05.201Z,9.40
2023-11-22T14:47:53.585Z,9.32
2023-11-22T14:50:39.001Z,9.32
2023-11-22T14:53:26.297Z,9.17
2023-11-22T14:56:12.069Z,9.28
2023-11-22T14:58:57.408Z,9.27
2023-11-22T15:01:42.791Z,9.21
2023-11-22T15:04:28.168Z,9.28
2023-11-22T15:07:13.289Z,9.27
2023-11-22T15:09:58.862Z,9.29
2023-11-22T15:12:44.027Z,9.31
2023-11-22T15:15:29.362Z,9.32
2023-11-22T15:18:14.645Z,9.33
2023-11-22T15:20:59.851Z,9.28
2023-11-22T15:23:45.108Z,9.37
2023-11-22T15:26:30.249Z,9.35
2023-11-22T15:29:17.604Z,9.30
2023-11-22T15:32:03.964Z,9.31
2023-11-22T15:34:49.278Z,9.28
2023-11-22T15:37:34.363Z,9.28
2023-11-22T15:40:19.816Z,9.27
2023-11-22T15:43:06.369Z,9.26
2023-11-22T15:45:51.396Z,9.24
2023-11-22T15:48:36.943Z,9.15
2023-11-22T15:51:22.101Z,9.19
2023-11-22T15:54:09.527Z,9.15
2023-11-22T15:56:54.811Z,9.13
2023-11-22T15:59:40.202Z,9.14
2023-11-22T16:02:25.574Z,9.15
2023-11-22T16:05:14.727Z,9.15
2023-11-22T16:08:00.341Z,9.15
2023-11-22T16:10:45.788Z,9.15
2023-11-22T16:13:32.145Z,9.16
2023-11-22T16:16:18.765Z,9.17
2023-11-22T16:19:06.181Z,9.18
2023-11-22T16:21:51.171Z,9.22
2023-11-22T16:24:36.824Z,9.20
2023-11-22T16:27:23.158Z,9.20
2023-11-22T16:30:09.864Z,9.07
2023-11-22T16:32:54.937Z,9.18
2023-11-22T16:35:40.367Z,9.18
2023-11-22T16:38:25.485Z,9.15
2023-11-22T16:41:12.960Z,9.15
2023-11-22T16:44:00.595Z,9.17
2023-11-22T16:46:50.488Z,9.09
2023-11-22T16:49:43.966Z,9.19
2023-11-22T16:52:30.498Z,9.22
2023-11-22T16:55:15.542Z,9.29
2023-11-22T16:58:03.120Z,9.21
2023-11-22T17:00:50.157Z,9.28
2023-11-22T17:03:35.260Z,9.17
2023-11-22T17:06:20.320Z,9.27
2023-11-22T17:09:06.035Z,9.30
2023-11-22T17:11:51.223Z,9.37
2023-11-22T17:14:37.275Z,9.34
2023-11-22T17:17:23.013Z,9.37
2023-11-22T17:20:11.417Z,9.23
2023-11-22T17:22:56.957Z,9.32
2023-11-22T17:25:44.319Z,9.40
2023-11-22T17:28:29.447Z,9.34
2023-11-22T17:31:14.633Z,9.30
2023-11-22T17:34:00.062Z,9.32
2023-11-22T17:36:45.132Z,9.23
2023-11-22T17:39:30.344Z,9.25
2023-11-22T17:42:15.461Z,9.35
2023-11-22T17:45:00.659Z,9.36
2023-11-22T17:47:46.209Z,9.30
2023-11-22T17:50:31.693Z,9.40
2023-11-22T17:53:16.724Z,9.41
2023-11-22T17:56:02.850Z,9.44
2023-11-22T17:58:48.052Z,9.35
2023-11-22T18:01:33.638Z,9.44
2023-11-22T18:04:18.672Z,9.34
2023-11-22T18:07:13.314Z,9.43
2023-11-22T18:10:00.814Z,9.44
2023-11-22T18:12:46.245Z,9.37
2023-11-22T18:15:31.460Z,9.46
2023-11-22T18:18:16.670Z,9.48
2023-11-22T18:21:01.690Z,9.49
2023-11-22T18:23:46.999Z,9.52
2023-11-22T18:26:32.487Z,9.46
2023-11-22T18:29:17.629Z,9.55
2023-11-22T18:32:04.025Z,9.55
2023-11-22T18:34:49.382Z,9.54
2023-11-22T18:37:34.485Z,9.58
2023-11-22T18:40:19.689Z,9.62
2023-11-22T18:43:07.007Z,9.64
2023-11-22T18:45:52.432Z,9.67
2023-11-22T18:48:37.627Z,9.66
2023-11-22T18:51:25.780Z,9.65
2023-11-22T18:54:11.919Z,9.71
2023-11-22T18:56:57.232Z,9.75
2023-11-22T18:59:49.454Z,9.76
2023-11-22T19:02:34.697Z,9.68
2023-11-22T19:05:20.272Z,9.78
2023-11-22T19:08:05.218Z,9.78
2023-11-22T19:10:50.571Z,9.79
2023-11-22T19:13:36.802Z,9.79
2023-11-22T19:16:22.359Z,9.79
2023-11-22T19:19:07.669Z,9.77
2023-11-22T19:21:53.068Z,9.79
2023-11-22T19:24:38.964Z,9.76
2023-11-22T19:27:23.909Z,9.83
2023-11-22T19:30:10.248Z,9.83
2023-11-22T19:32:56.301Z,9.86
2023-11-22T19:35:41.391Z,9.88
2023-11-22T19:38:29.626Z,9.83
2023-11-22T19:41:14.946Z,9.86
2023-11-22T19:44:00.353Z,9.93
2023-11-22T19:46:46.302Z,9.94
2023-11-22T19:49:31.499Z,9.96
2023-11-22T19:52:16.738Z,9.96
2023-11-22T19:55:04.289Z,9.96
2023-11-22T19:57:49.306Z,9.95
2023-11-22T20:00:34.712Z,9.97
2023-11-22T20:03:19.966Z,10.01
2023-11-22T20:06:05.474Z,10.04
2023-11-22T20:08:50.382Z,10.02
2023-11-22T20:11:35.452Z,10.03
2023-11-22T20:14:20.617Z,10.00
2023-11-22T20:17:07.064Z,10.05
2023-11-22T20:19:53.494Z,9.96
2023-11-22T20:22:38.917Z,10.03
2023-11-22T20:25:24.349Z,10.01
2023-11-22T20:28:09.834Z,10.05
2023-11-22T20:30:55.042Z,10.02
2023-11-22T20:33:40.625Z,10.04
2023-11-22T20:36:25.774Z,10.02
2023-11-22T20:39:11.547Z,9.95
2023-11-22T20:41:56.701Z,10.00
2023-11-22T20:44:42.406Z,10.01
2023-11-22T20:47:27.614Z,9.96
2023-11-22T20:50:12.743Z,10.02
2023-11-22T20:52:59.546Z,10.04
2023-11-22T20:55:44.668Z,10.00
2023-11-22T20:58:29.935Z,9.94
2023-11-22T21:01:15.559Z,9.85
2023-11-22T21:04:00.576Z,9.87
2023-11-22T21:06:46.125Z,9.83
2023-11-22T21:09:31.444Z,9.79
2023-11-22T21:12:16.796Z,9.71
2023-11-22T21:15:02.215Z,9.74
2023-11-22T21:17:49.344Z,9.74
2023-11-22T21:20:34.828Z,9.67
2023-11-22T21:23:19.789Z,9.64
2023-11-22T21:26:05.029Z,9.60
2023-11-22T21:28:50.560Z,9.56
2023-11-22T21:31:35.892Z,9.54
2023-11-22T21:34:21.435Z,9.53
2023-11-22T21:37:06.418Z,9.41
2023-11-22T21:39:51.796Z,9.46
2023-11-22T21:42:37.091Z,9.48
2023-11-22T21:45:21.969Z,9.46
2023-11-22T21:48:08.187Z,9.36
2023-11-22T21:50:53.268Z,9.38
2023-11-22T21:53:41.754Z,9.23
2023-11-22T21:56:26.935Z,9.33
2023-11-22T21:59:12.416Z,9.32
2023-11-22T22:01:57.469Z,9.30
2023-11-22T22:04:42.400Z,9.28
2023-11-22T22:07:27.284Z,9.25
2023-11-22T22:10:12.532Z,9.23
2023-11-22T22:12:57.956Z,9.21
2023-11-22T22:15:43.634Z,9.20
2023-11-22T22:18:29.044Z,9.11
2023-11-22T22:21:14.356Z,9.15
2023-11-22T22:23:59.367Z,9.15
2023-11-22T22:26:44.805Z,9.06
2023-11-22T22:29:29.855Z,9.02
2023-11-22T22:32:14.931Z,8.94
2023-11-22T22:35:00.333Z,8.98
2023-11-22T22:37:48.664Z,9.00
2023-11-22T22:40:35.834Z,8.90
2023-11-22T22:43:21.425Z,8.92
2023-11-22T22:46:06.554Z,8.87
2023-11-22T22:48:51.838Z,8.84
2023-11-22T22:51:37.263Z,8.81
2023-11-22T22:54:22.764Z,8.70
2023-11-22T22:57:08.174Z,8.75
2023-11-22T22:59:53.185Z,8.64
2023-11-22T23:02:39.621Z,8.64
2023-11-22T23:05:27.025Z,8.60
2023-11-22T23:08:12.291Z,8.52
2023-11-22T23:10:57.325Z,8.54
2023-11-22T23:13:42.311Z,8.53
2023-11-22T23:16:27.249Z,8.49
2023-11-22T23:19:14.075Z,8.43
2023-11-22T23:22:02.627Z,8.42
2023-11-22T23:24:47.898Z,8.29
2023-11-22T23:27:33.156Z,8.30
2023-11-22T23:30:18.735Z,8.22
2023-11-22T23:33:04.317Z,8.29
2023-11-22T23:35:49.698Z,8.26
2023-11-22T23:38:36.722Z,8.25
2023-11-22T23:41:22.300Z,8.25
2023-11-22T23:44:07.503Z,8.23
2023-11-22T23:46:52.773Z,8.18
2023-11-22T23:49:37.706Z,8.16
2023-11-22T23:52:22.847Z,8.16
2023-11-22T23:55:11.144Z,8.14
2023-11-22T23:57:56.400Z,8.13
